Time;durP1;ratioP1;P1;durP2;ratioP2;P2;SDS_P1;SDS_P2;PMS_P1;PMS_P2;Temp;Humidity;BMP_temperature;BMP_pressure;BME280_temperature;BME280_humidity;BME280_pressure;Samples;Min_cycle;Max_cycle;Signal;HPM_P1;HPM_P2
2021/05/27 00:02:08;;;;;;;8.20;4.65;;;410.40;1510.40;;;;;;5093820;28;20036;-70
2021/05/27 00:04:35;;;;;;;13.30;5.80;;;410.30;1510.40;;;;;;5093702;28;20047;-70
2021/05/27 00:07:01;;;;;;;8.43;5.10;;;410.40;1510.40;;;;;;5093757;28;20119;-70
2021/05/27 00:09:27;;;;;;;10.52;6.13;;;410.30;1536.00;;;;;;5093938;28;20043;-70
2021/05/27 00:11:54;;;;;;;10.32;4.90;;;410.30;1536.00;;;;;;5093784;28;20028;-70
2021/05/27 00:14:20;;;;;;;9.40;5.28;;;410.30;1536.00;;;;;;5093889;28;20027;-69
2021/05/27 00:16:46;;;;;;;10.55;5.22;;;410.20;1536.00;;;;;;5093597;28;20165;-70
2021/05/27 00:19:12;;;;;;;9.93;6.00;;;410.20;1536.00;;;;;;5093914;28;20069;-70
2021/05/27 00:21:38;;;;;;;12.50;6.35;;;410.20;1536.00;;;;;;5093603;28;20028;-71
2021/05/27 00:24:05;;;;;;;10.85;5.43;;;410.20;1536.00;;;;;;5093605;28;20040;-70
2021/05/27 00:26:31;;;;;;;11.75;5.57;;;410.20;1536.00;;;;;;5093601;28;20047;-70
2021/05/27 00:28:57;;;;;;;12.07;6.07;;;410.20;1561.60;;;;;;5093955;28;20373;-72
2021/05/27 00:31:23;;;;;;;11.35;5.95;;;410.10;1561.60;;;;;;5093363;28;20389;-71
2021/05/27 00:33:48;;;;;;;14.35;6.03;;;410.10;1561.60;;;;;;5093663;28;20111;-70
2021/05/27 00:36:14;;;;;;;11.50;6.32;;;410.10;1561.60;;;;;;5093532;28;20016;-70
2021/05/27 00:38:40;;;;;;;15.13;7.40;;;410.10;1561.60;;;;;;5093594;28;20465;-70
2021/05/27 00:41:06;;;;;;;11.70;6.85;;;410.00;1561.60;;;;;;5094048;28;20456;-70
2021/05/27 00:43:31;;;;;;;10.85;6.25;;;410.00;1561.60;;;;;;5097753;28;20036;-70
2021/05/27 00:45:57;;;;;;;15.82;7.15;;;410.00;1561.60;;;;;;5097482;28;20085;-71
2021/05/27 00:48:57;;;;;;;9.80;6.18;;;410.00;1561.60;;;;;;5096056;28;20478;-71
2021/05/27 00:51:14;;;;;;;11.20;6.53;;;410.00;1561.60;;;;;;5095053;28;20039;-71
2021/05/27 00:53:40;;;;;;;12.77;5.65;;;409.90;1587.20;;;;;;5096010;28;20472;-70
2021/05/27 00:56:06;;;;;;;9.77;6.20;;;409.90;1587.20;;;;;;5097184;28;20035;-70
2021/05/27 00:58:33;;;;;;;11.18;7.00;;;409.80;1587.20;;;;;;5097509;28;20028;-71
2021/05/27 01:00:59;;;;;;;11.18;6.07;;;409.80;1587.20;;;;;;5097097;28;20024;-71
2021/05/27 01:03:24;;;;;;;11.25;6.13;;;409.80;1587.20;;;;;;5097035;28;20026;-71
2021/05/27 01:05:50;;;;;;;12.10;6.47;;;409.80;1587.20;;;;;;5097173;28;20036;-70
2021/05/27 01:08:16;;;;;;;9.38;5.80;;;409.80;1587.20;;;;;;5097080;28;20016;-70
2021/05/27 01:10:42;;;;;;;12.48;6.45;;;409.80;1587.20;;;;;;5096939;28;20106;-71
2021/05/27 01:13:07;;;;;;;12.55;7.13;;;409.70;1612.80;;;;;;5096797;28;20093;-71
2021/05/27 01:15:38;;;;;;;13.45;6.72;;;409.80;1612.80;;;;;;5097162;28;20024;-71
2021/05/27 01:18:09;;;;;;;14.80;6.40;;;409.70;1612.80;;;;;;5096994;28;20020;-71
2021/05/27 01:20:37;;;;;;;13.75;6.80;;;409.70;1612.80;;;;;;5096917;28;20020;-70
2021/05/27 01:23:03;;;;;;;14.50;6.03;;;409.70;1612.80;;;;;;5096717;28;20036;-70
2021/05/27 01:25:29;;;;;;;11.02;6.15;;;409.60;1612.80;;;;;;5096554;28;20096;-70
2021/05/27 01:27:56;;;;;;;13.65;6.40;;;409.70;1612.80;;;;;;5095685;28;20016;-72
2021/05/27 01:30:22;;;;;;;11.38;5.93;;;409.70;1612.80;;;;;;5096804;28;20020;-71
2021/05/27 01:32:48;;;;;;;10.52;5.72;;;409.70;1612.80;;;;;;5096822;28;20105;-71
2021/05/27 01:35:19;;;;;;;12.23;5.65;;;409.60;1612.80;;;;;;5096834;28;20064;-70
2021/05/27 01:37:46;;;;;;;10.57;5.47;;;409.60;1638.40;;;;;;5096439;28;20415;-71
2021/05/27 01:40:13;;;;;;;8.70;5.38;;;384.90;1587.20;;;;;;5096333;28;20024;-71
2021/05/27 01:42:39;;;;;;;10.35;6.10;;;384.90;1587.20;;;;;;5096422;28;20020;-71
2021/05/27 01:45:06;;;;;;;12.05;8.63;;;384.90;1587.20;;;;;;5096121;28;20432;-70
2021/05/27 01:47:31;;;;;;;20.73;8.77;;;384.90;1612.80;;;;;;5095830;28;20044;-71
2021/05/27 01:49:57;;;;;;;10.77;7.20;;;384.90;1587.20;;;;;;5096425;28;20077;-71
2021/05/27 01:52:23;;;;;;;12.25;6.85;;;384.90;1587.20;;;;;;5095918;28;20471;-71
2021/05/27 01:54:49;;;;;;;9.60;5.78;;;384.90;1587.20;;;;;;5095930;28;20028;-71
2021/05/27 01:57:14;;;;;;;14.23;6.22;;;384.80;1587.20;;;;;;5096152;28;20020;-71
2021/05/27 01:59:40;;;;;;;10.48;6.15;;;384.80;1587.20;;;;;;5096178;28;20381;-71
2021/05/27 02:02:06;;;;;;;13.13;5.65;;;384.80;1587.20;;;;;;5096687;28;20462;-71
2021/05/27 02:04:32;;;;;;;11.15;5.72;;;384.80;1587.20;;;;;;5096020;28;20028;-71
2021/05/27 02:07:00;;;;;;;9.23;5.97;;;384.80;1587.20;;;;;;5095837;28;20149;-71
2021/05/27 02:09:26;;;;;;;10.02;5.93;;;384.80;1587.20;;;;;;5095713;28;20031;-71
2021/05/27 02:11:52;;;;;;;10.18;5.57;;;384.70;1587.20;;;;;;5096046;28;20382;-72
2021/05/27 02:14:22;;;;;;;11.25;6.32;;;384.70;1587.20;;;;;;5095690;28;20027;-71
2021/05/27 02:16:47;;;;;;;10.77;5.53;;;384.70;1587.20;;;;;;5095883;28;20050;-71
2021/05/27 02:19:14;;;;;;;12.32;6.10;;;384.60;1612.80;;;;;;5095640;28;20482;-71
2021/05/27 02:21:40;;;;;;;9.18;5.60;;;384.60;1612.80;;;;;;5095449;28;20107;-72
2021/05/27 02:24:07;;;;;;;12.05;4.93;;;384.60;1612.80;;;;;;5094211;28;20044;-71
2021/05/27 02:26:33;;;;;;;17.27;6.35;;;384.60;1612.80;;;;;;5095503;28;20040;-71
2021/05/27 02:29:00;;;;;;;10.60;5.40;;;384.60;1612.80;;;;;;5095537;28;20343;-71
2021/05/27 02:31:27;;;;;;;12.88;5.60;;;384.50;1612.80;;;;;;5095321;28;20489;-71
2021/05/27 02:33:52;;;;;;;10.63;5.70;;;384.50;1612.80;;;;;;5095535;28;20024;-71
2021/05/27 02:36:19;;;;;;;12.38;5.25;;;384.60;1612.80;;;;;;5095452;28;20115;-71
2021/05/27 02:38:45;;;;;;;13.50;5.30;;;384.50;1612.80;;;;;;5095439;28;20093;-71
2021/05/27 02:41:11;;;;;;;14.95;6.30;;;384.50;1612.80;;;;;;5095372;28;20428;-71
2021/05/27 02:43:37;;;;;;;8.02;4.95;;;384.50;1612.80;;;;;;5095108;28;20020;-71
2021/05/27 02:46:04;;;;;;;13.77;6.03;;;384.50;1638.40;;;;;;5095263;28;20059;-71
2021/05/27 02:48:31;;;;;;;11.23;5.88;;;384.50;1638.40;;;;;;5095222;28;20107;-71
2021/05/27 02:50:58;;;;;;;13.65;6.10;;;384.50;1638.40;;;;;;5094802;28;20035;-71
2021/05/27 02:53:24;;;;;;;29.08;8.10;;;384.50;1638.40;;;;;;5093595;28;20028;-71
2021/05/27 02:55:53;;;;;;;15.88;6.13;;;384.40;1638.40;;;;;;5094245;28;20032;-71
2021/05/27 02:58:20;;;;;;;10.43;5.35;;;384.40;1638.40;;;;;;5094934;28;20024;-71
2021/05/27 03:00:46;;;;;;;10.55;5.88;;;384.40;1638.40;;;;;;5094205;28;20047;-70
2021/05/27 03:03:15;;;;;;;8.30;5.00;;;384.40;1612.80;;;;;;5094835;28;20027;-71
2021/05/27 03:05:42;;;;;;;8.00;4.60;;;384.40;1612.80;;;;;;5093708;28;20039;-71
2021/05/27 03:08:08;;;;;;;10.60;4.93;;;384.40;1612.80;;;;;;5093945;28;20027;-70
2021/05/27 03:10:34;;;;;;;20.02;5.32;;;384.40;1612.80;;;;;;5094104;28;20024;-71
2021/05/27 03:13:00;;;;;;;22.17;5.78;;;384.40;1612.80;;;;;;5093639;28;20024;-70
2021/05/27 03:15:26;;;;;;;18.20;6.97;;;384.40;1612.80;;;;;;5094472;28;20039;-71
2021/05/27 03:17:51;;;;;;;20.10;6.30;;;384.40;1612.80;;;;;;5094542;28;20077;-71
2021/05/27 03:20:17;;;;;;;15.40;5.70;;;384.30;1638.40;;;;;;5094368;28;20119;-71
2021/05/27 03:22:43;;;;;;;15.10;5.82;;;384.30;1638.40;;;;;;5094245;28;20073;-70
2021/05/27 03:25:10;;;;;;;15.30;5.28;;;384.30;1638.40;;;;;;5094455;28;20040;-71
2021/05/27 03:27:35;;;;;;;11.52;5.80;;;384.30;1638.40;;;;;;5094390;28;20020;-71
2021/05/27 03:30:01;;;;;;;12.30;5.35;;;384.30;1638.40;;;;;;5094505;28;20351;-71
2021/05/27 03:32:27;;;;;;;13.88;5.28;;;384.30;1638.40;;;;;;5094285;28;20477;-70
2021/05/27 03:34:53;;;;;;;15.55;4.88;;;384.30;1638.40;;;;;;5094035;28;20024;-71
2021/05/27 03:37:18;;;;;;;20.95;5.15;;;384.30;1638.40;;;;;;5094011;28;20080;-71
2021/05/27 03:40:10;;;;;;;8.35;4.15;;;384.40;1612.80;;;;;;5094263;28;20024;-71
2021/05/27 03:42:30;;;;;;;8.15;3.72;;;384.40;1612.80;;;;;;5093950;28;20020;-71
2021/05/27 03:44:55;;;;;;;17.45;4.55;;;384.30;1612.80;;;;;;5094159;28;20043;-71
2021/05/27 03:47:21;;;;;;;11.60;4.28;;;384.40;1612.80;;;;;;5094675;28;20469;-70
2021/05/27 03:49:47;;;;;;;11.63;4.55;;;384.40;1612.80;;;;;;5094152;28;20036;-71
2021/05/27 03:52:13;;;;;;;13.93;4.45;;;384.50;1638.40;;;;;;5093863;28;20113;-71
2021/05/27 03:54:38;;;;;;;12.73;4.07;;;384.50;1612.80;;;;;;5094079;28;20039;-71
2021/05/27 03:57:04;;;;;;;10.63;4.25;;;384.50;1612.80;;;;;;5094127;28;20039;-71
2021/05/27 04:02:15;;;;;;;11.25;4.07;;;384.60;1587.20;;;;;;5094229;28;20027;-70
2021/05/27 04:07:26;;;;;;;13.55;3.85;;;384.60;1612.80;;;;;;5093760;28;20173;-70
2021/05/27 04:09:52;;;;;;;9.80;3.78;;;384.70;1612.80;;;;;;5093795;28;20470;-71
2021/05/27 04:15:21;;;;;;;18.90;4.60;;;384.80;1587.20;;;;;;5094196;28;20365;-70
2021/05/27 04:17:54;;;;;;;15.27;5.03;;;384.80;1587.20;;;;;;5097371;28;20062;-70
2021/05/27 04:20:21;;;;;;;10.73;4.50;;;384.90;1587.20;;;;;;5097971;28;20024;-70
2021/05/27 04:22:48;;;;;;;15.85;5.15;;;384.90;1587.20;;;;;;5097801;28;20041;-71
2021/05/27 04:25:15;;;;;;;8.55;4.68;;;409.60;1612.80;;;;;;5097851;28;20035;-71
2021/05/27 04:27:41;;;;;;;12.88;5.22;;;409.70;1612.80;;;;;;5097689;28;20020;-70
2021/05/27 04:30:18;;;;;;;8.13;4.43;;;409.80;1587.20;;;;;;5097889;28;20028;-71
2021/05/27 04:35:36;;;;;;;10.65;4.20;;;410.00;1561.60;;;;;;5097953;28;20466;-71
2021/05/27 04:38:06;;;;;;;9.70;3.50;;;410.20;1561.60;;;;;;5097728;28;20024;-71
2021/05/27 04:40:32;;;;;;;9.38;3.42;;;410.20;1561.60;;;;;;5097637;28;20027;-71
2021/05/27 04:42:59;;;;;;;7.70;3.22;;;410.30;1536.00;;;;;;5097542;28;20024;-70
2021/05/27 04:45:25;;;;;;;8.45;3.70;;;410.40;1536.00;;;;;;5097360;28;20378;-71
2021/05/27 04:47:52;;;;;;;4.88;3.08;;;435.20;1510.40;;;;;;5097395;28;20102;-71
2021/05/27 04:50:18;;;;;;;4.70;2.55;;;435.30;1510.40;;;;;;5097379;28;20470;-69
2021/05/27 04:52:44;;;;;;;7.65;3.10;;;435.40;1484.80;;;;;;5097329;28;20031;-70
2021/05/27 04:55:12;;;;;;;8.18;2.75;;;435.60;1459.20;;;;;;5097334;28;20099;-71
2021/05/27 04:57:38;;;;;;;8.48;2.88;;;435.70;1459.20;;;;;;5097312;28;20032;-69
2021/05/27 05:00:11;;;;;;;5.18;2.67;;;435.90;1433.60;;;;;;5097307;28;20052;-70
2021/05/27 05:02:37;;;;;;;5.10;3.20;;;436.00;1433.60;;;;;;5097195;28;20031;-71
2021/05/27 05:05:04;;;;;;;10.85;2.97;;;436.10;1408.00;;;;;;5097015;28;20546;-71
2021/05/27 05:07:30;;;;;;;6.47;2.75;;;460.80;1433.60;;;;;;5097107;28;20040;-71
2021/05/27 05:09:56;;;;;;;7.53;2.55;;;460.90;1433.60;;;;;;5097088;28;20027;-69
2021/05/27 05:12:21;;;;;;;6.28;2.60;;;461.00;1408.00;;;;;;5097397;28;20028;-69
2021/05/27 05:14:47;;;;;;;4.97;2.63;;;461.10;1382.40;;;;;;5096859;28;20020;-72
2021/05/27 05:17:13;;;;;;;6.53;2.90;;;461.20;1408.00;;;;;;5096638;28;20028;-69
2021/05/27 05:19:39;;;;;;;6.20;3.30;;;461.30;1382.40;;;;;;5096868;28;20024;-69
2021/05/27 05:22:04;;;;;;;9.18;2.80;;;461.40;1382.40;;;;;;5096568;28;20154;-71
2021/05/27 05:24:30;;;;;;;9.70;2.80;;;461.60;1382.40;;;;;;5095480;28;20382;-69
2021/05/27 05:26:56;;;;;;;8.40;2.63;;;461.60;1382.40;;;;;;5096321;28;20061;-71
2021/05/27 05:29:22;;;;;;;4.60;2.35;;;461.60;1356.80;;;;;;5095190;28;20440;-69
2021/05/27 05:31:47;;;;;;;6.72;2.67;;;486.40;1356.80;;;;;;5096962;28;20115;-71
2021/05/27 05:34:13;;;;;;;7.53;2.42;;;486.50;1356.80;;;;;;5096618;28;20096;-71
2021/05/27 05:36:39;;;;;;;5.82;2.45;;;486.60;1331.20;;;;;;5096672;28;20466;-71
2021/05/27 05:39:05;;;;;;;6.68;2.92;;;486.80;1331.20;;;;;;5096618;28;20354;-71
2021/05/27 05:41:31;;;;;;;5.00;2.28;;;486.90;1305.60;;;;;;5096529;28;20020;-71
2021/05/27 05:43:58;;;;;;;6.07;2.50;;;487.00;1305.60;;;;;;5096437;28;20546;-69
2021/05/27 05:46:24;;;;;;;6.90;2.17;;;487.10;1280.00;;;;;;5096260;28;20485;-69
2021/05/27 05:48:49;;;;;;;6.25;2.13;;;487.20;1280.00;;;;;;5095778;28;20035;-71
2021/05/27 05:51:15;;;;;;;5.18;1.70;;;512.10;1280.00;;;;;;5096492;28;20030;-69
2021/05/27 05:53:41;;;;;;;4.88;2.10;;;512.40;1254.40;;;;;;5096322;28;20031;-69
2021/05/27 05:56:07;;;;;;;5.78;2.17;;;512.60;1254.40;;;;;;5096286;28;20040;-71
2021/05/27 05:58:32;;;;;;;6.53;2.25;;;512.90;1228.80;;;;;;5096193;28;20020;-71
2021/05/27 06:00:58;;;;;;;4.75;2.00;;;537.60;1228.80;;;;;;5095913;28;20032;-68
2021/05/27 06:03:24;;;;;;;7.05;2.10;;;537.60;1228.80;;;;;;5095749;28;20389;-69
2021/05/27 06:05:50;;;;;;;4.50;1.60;;;537.90;1203.20;;;;;;5095673;28;20121;-69
2021/05/27 06:08:16;;;;;;;2.60;1.42;;;538.00;1203.20;;;;;;5095426;28;20024;-71
2021/05/27 06:10:42;;;;;;;6.10;2.10;;;538.00;1177.60;;;;;;5095677;28;20031;-70
2021/05/27 06:13:08;;;;;;;5.03;1.63;;;538.10;1152.00;;;;;;5095990;28;20024;-71
2021/05/27 06:15:34;;;;;;;2.90;1.77;;;538.30;1152.00;;;;;;5095871;28;20036;-70
2021/05/27 06:18:00;;;;;;;5.70;1.38;;;563.20;1177.60;;;;;;5095578;28;20474;-69
2021/05/27 06:20:28;;;;;;;3.67;1.70;;;563.40;1152.00;;;;;;5095628;28;20496;-68
2021/05/27 06:22:55;;;;;;;7.15;1.70;;;563.60;1152.00;;;;;;5095496;28;20048;-69
2021/05/27 06:25:22;;;;;;;3.47;1.65;;;563.90;1152.00;;;;;;5095707;28;20024;-69
2021/05/27 06:27:49;;;;;;;5.07;1.58;;;588.80;1126.40;;;;;;5095672;28;20036;-71
2021/05/27 06:30:15;;;;;;;2.80;1.40;;;589.00;1100.80;;;;;;5095793;28;20016;-68
2021/05/27 06:32:41;;;;;;;2.83;1.42;;;588.90;1100.80;;;;;;5095127;28;20020;-69
2021/05/27 06:35:09;;;;;;;3.97;1.33;;;588.90;1100.80;;;;;;5095730;28;20073;-71
2021/05/27 06:37:39;;;;;;;3.90;1.40;;;588.90;1100.80;;;;;;5095348;28;20024;-70
2021/05/27 06:40:07;;;;;;;3.33;1.30;;;588.90;1100.80;;;;;;5094144;28;20032;-69
2021/05/27 06:42:33;;;;;;;4.93;1.30;;;589.10;1100.80;;;;;;5094234;28;20104;-71
2021/05/27 06:44:59;;;;;;;2.65;1.13;;;589.40;1075.20;;;;;;5094952;28;20491;-70
2021/05/27 06:47:24;;;;;;;5.38;1.17;;;589.60;1075.20;;;;;;5094956;28;20055;-70
2021/05/27 06:49:50;;;;;;;4.63;1.25;;;614.50;1049.60;;;;;;5094621;28;20499;-69
2021/05/27 06:52:16;;;;;;;2.80;1.40;;;614.70;1049.60;;;;;;5094771;28;20080;-70
2021/05/27 06:54:45;;;;;;;3.97;1.30;;;615.00;1024.00;;;;;;5094568;28;20460;-68
2021/05/27 06:57:10;;;;;;;2.03;1.20;;;615.20;1024.00;;;;;;5094053;28;20473;-69
2021/05/27 06:59:36;;;;;;;1.58;1.15;;;640.00;998.40;;;;;;5094374;28;20024;-70
2021/05/27 07:02:02;;;;;;;3.10;1.25;;;640.30;998.40;;;;;;5094376;28;20016;-69
2021/05/27 07:04:28;;;;;;;4.25;1.25;;;640.60;972.80;;;;;;5094455;28;20054;-69
2021/05/27 07:06:54;;;;;;;2.83;1.30;;;640.80;972.80;;;;;;5094349;28;20118;-68
2021/05/27 07:09:20;;;;;;;4.68;1.08;;;665.60;998.40;;;;;;5094494;28;20422;-69
2021/05/27 07:11:46;;;;;;;3.67;1.40;;;665.80;972.80;;;;;;5094237;28;20047;-69
2021/05/27 07:14:12;;;;;;;3.15;1.20;;;666.10;947.20;;;;;;5093958;28;20023;-68
2021/05/27 07:16:38;;;;;;;4.70;1.20;;;666.30;947.20;;;;;;5094476;28;20024;-69
2021/05/27 07:19:04;;;;;;;2.05;1.05;;;666.40;921.60;;;;;;5094051;28;20099;-69
2021/05/27 07:21:30;;;;;;;4.95;1.40;;;691.30;921.60;;;;;;5093918;28;20123;-69
2021/05/27 07:23:56;;;;;;;2.65;1.55;;;691.40;896.00;;;;;;5091230;28;20036;-70
2021/05/27 07:26:23;;;;;;;3.97;1.38;;;691.60;870.40;;;;;;5093688;28;20070;-71
2021/05/27 07:28:50;;;;;;;1.70;1.10;;;691.80;870.40;;;;;;5093834;28;20444;-69
2021/05/27 07:31:15;;;;;;;3.30;1.10;;;691.90;844.80;;;;;;5093713;28;20026;-69
2021/05/27 07:33:41;;;;;;;4.03;1.60;;;692.10;844.80;;;;;;5093853;28;20016;-72
2021/05/27 07:36:07;;;;;;;4.88;1.10;;;716.80;844.80;;;;;;5093295;28;20115;-70
2021/05/27 07:38:33;;;;;;;2.95;1.00;;;716.90;844.80;;;;;;5093659;28;20044;-69
2021/05/27 07:41:00;;;;;;;3.00;1.27;;;717.00;844.80;;;;;;5093651;28;20496;-70
2021/05/27 07:43:26;;;;;;;2.35;1.13;;;717.30;819.20;;;;;;5092048;28;20404;-69
2021/05/27 07:45:52;;;;;;;2.20;1.10;;;717.30;844.80;;;;;;5093344;28;20028;-70
2021/05/27 07:48:18;;;;;;;4.90;0.95;;;717.60;819.20;;;;;;5093853;28;20070;-69
2021/05/27 07:50:43;;;;;;;2.15;1.05;;;717.70;819.20;;;;;;5093050;28;20077;-69
2021/05/27 07:53:11;;;;;;;1.83;0.90;;;742.50;819.20;;;;;;5093020;28;20016;-70
2021/05/27 07:55:39;;;;;;;3.47;1.30;;;742.60;819.20;;;;;;5092932;28;20035;-70
2021/05/27 07:58:04;;;;;;;1.45;1.00;;;742.80;819.20;;;;;;5089848;28;20020;-69
2021/05/27 08:00:30;;;;;;;2.20;1.05;;;742.90;819.20;;;;;;5093091;28;20038;-69
2021/05/27 08:02:56;;;;;;;3.10;0.90;;;743.00;793.60;;;;;;5093361;28;20028;-69
2021/05/27 08:05:22;;;;;;;4.95;0.95;;;743.10;793.60;;;;;;5093314;28;20036;-70
2021/05/27 08:07:49;;;;;;;2.95;1.00;;;743.20;768.00;;;;;;5093368;28;20031;-69
2021/05/27 08:10:15;;;;;;;2.38;0.93;;;768.00;768.00;;;;;;5093386;28;20435;-70
2021/05/27 08:12:42;;;;;;;3.75;1.10;;;768.10;768.00;;;;;;5093005;28;20401;-68
2021/05/27 08:15:09;;;;;;;4.43;1.05;;;768.20;742.40;;;;;;5092800;28;20016;-69
2021/05/27 08:17:35;;;;;;;4.55;0.95;;;768.30;742.40;;;;;;5093059;28;20024;-68
2021/05/27 08:20:02;;;;;;;1.30;0.80;;;768.50;742.40;;;;;;5093646;28;20020;-71
2021/05/27 08:22:28;;;;;;;4.25;1.00;;;768.70;716.80;;;;;;5090473;28;20056;-69
2021/05/27 08:24:54;;;;;;;1.50;1.00;;;768.70;716.80;;;;;;5093121;28;20423;-70
2021/05/27 08:27:20;;;;;;;2.45;0.77;;;768.80;716.80;;;;;;5092974;28;20024;-71
2021/05/27 08:29:46;;;;;;;4.18;1.00;;;793.60;716.80;;;;;;5093338;28;20078;-69
2021/05/27 08:32:12;;;;;;;3.83;0.93;;;793.60;742.40;;;;;;5092662;28;20036;-68
2021/05/27 08:34:39;;;;;;;1.88;0.95;;;793.80;742.40;;;;;;5093009;28;20024;-69
2021/05/27 08:37:06;;;;;;;2.53;1.17;;;793.80;716.80;;;;;;5093180;28;20020;-69
2021/05/27 08:39:32;;;;;;;2.97;1.08;;;793.80;716.80;;;;;;5093045;28;20028;-69
2021/05/27 08:41:59;;;;;;;4.45;0.90;;;794.10;716.80;;;;;;5093642;28;20098;-73
2021/05/27 08:44:25;;;;;;;3.90;1.25;;;794.10;716.80;;;;;;5093381;28;20389;-70
2021/05/27 08:46:51;;;;;;;2.55;1.17;;;794.10;691.20;;;;;;5093565;28;20032;-69
2021/05/27 08:49:17;;;;;;;3.70;1.30;;;794.30;691.20;;;;;;5093616;28;20465;-69
2021/05/27 08:51:43;;;;;;;2.00;1.17;;;794.30;691.20;;;;;;5092609;28;20028;-69
2021/05/27 08:54:09;;;;;;;3.10;1.02;;;794.40;691.20;;;;;;5093675;28;20028;-69
2021/05/27 08:56:35;;;;;;;2.20;1.20;;;794.50;691.20;;;;;;5093479;28;20465;-69
2021/05/27 08:59:01;;;;;;;2.38;1.05;;;794.50;665.60;;;;;;5093489;28;20454;-69
2021/05/27 09:01:27;;;;;;;1.50;0.90;;;819.20;665.60;;;;;;5093238;28;20035;-69
2021/05/27 09:03:56;;;;;;;2.55;1.17;;;819.40;691.20;;;;;;5095193;28;20035;-69
2021/05/27 09:06:23;;;;;;;1.77;1.30;;;819.40;665.60;;;;;;5096964;28;20031;-69
2021/05/27 09:09:01;;;;;;;3.42;0.90;;;819.40;640.00;;;;;;5096740;28;20115;-70
2021/05/27 09:11:38;;;;;;;4.80;1.30;;;819.50;665.60;;;;;;5097205;28;20055;-70
2021/05/27 09:14:04;;;;;;;3.08;1.17;;;819.60;665.60;;;;;;5097174;28;20016;-70
2021/05/27 09:16:30;;;;;;;3.45;1.00;;;819.60;640.00;;;;;;5096918;28;20020;-67
2021/05/27 09:19:16;;;;;;;1.65;1.08;;;819.50;665.60;;;;;;5097061;28;20031;-67
2021/05/27 09:21:43;;;;;;;1.45;0.90;;;819.40;640.00;;;;;;5096945;28;20386;-67
2021/05/27 09:24:09;;;;;;;2.97;1.05;;;819.30;665.60;;;;;;5096617;28;20044;-67
2021/05/27 09:26:56;;;;;;;3.53;1.05;;;819.20;665.60;;;;;;5096727;28;20040;-67
2021/05/27 09:29:23;;;;;;;4.45;1.00;;;794.30;691.20;;;;;;5096535;28;20062;-66
2021/05/27 09:32:07;;;;;;;3.42;0.80;;;794.10;665.60;;;;;;5096877;28;20041;-66
2021/05/27 09:34:47;;;;;;;5.13;1.25;;;794.10;665.60;;;;;;5096587;28;20020;-69
2021/05/27 09:37:31;;;;;;;6.35;0.80;;;794.10;665.60;;;;;;5096684;28;20080;-69
2021/05/27 09:39:58;;;;;;;1.90;1.05;;;794.10;691.20;;;;;;5096481;28;20024;-69
2021/05/27 09:42:25;;;;;;;3.03;1.15;;;794.10;691.20;;;;;;5096506;28;20461;-70
2021/05/27 09:44:51;;;;;;;4.47;0.98;;;794.20;691.20;;;;;;5096504;28;20032;-69
2021/05/27 09:47:34;;;;;;;3.97;1.15;;;794.30;691.20;;;;;;5096503;28;20028;-69
2021/05/27 09:50:03;;;;;;;2.88;1.30;;;794.40;665.60;;;;;;5096141;28;20470;-69
2021/05/27 09:52:43;;;;;;;4.72;1.27;;;794.50;691.20;;;;;;5096437;28;20024;-69
2021/05/27 09:55:15;;;;;;;2.03;1.05;;;819.20;691.20;;;;;;5096313;28;20030;-70
2021/05/27 09:57:42;;;;;;;4.38;1.30;;;819.20;665.60;;;;;;5096328;28;20081;-69
2021/05/27 10:00:26;;;;;;;5.00;1.33;;;819.20;665.60;;;;;;5096172;28;20109;-69
2021/05/27 10:02:52;;;;;;;9.00;0.95;;;819.40;665.60;;;;;;5096012;28;20027;-69
2021/05/27 10:05:19;;;;;;;7.13;1.10;;;819.40;665.60;;;;;;5096049;28;20120;-69
2021/05/27 10:07:49;;;;;;;1.20;0.82;;;819.40;665.60;;;;;;5095912;28;20570;-69
2021/05/27 10:10:25;;;;;;;2.38;0.88;;;819.40;665.60;;;;;;5096007;28;20053;-66
2021/05/27 10:12:53;;;;;;;4.78;1.20;;;819.50;665.60;;;;;;5096257;28;20048;-66
2021/05/27 10:15:21;;;;;;;2.63;1.23;;;819.50;665.60;;;;;;5094576;28;20043;-67
2021/05/27 10:17:47;;;;;;;2.28;0.93;;;819.50;665.60;;;;;;5095725;28;20031;-66
2021/05/27 10:20:16;;;;;;;0.85;0.80;;;819.40;640.00;;;;;;5095472;28;20477;-66
2021/05/27 10:22:44;;;;;;;2.75;0.80;;;819.50;665.60;;;;;;5095495;28;20048;-66
2021/05/27 10:25:13;;;;;;;3.92;0.93;;;819.70;665.60;;;;;;5095567;28;20039;-66
2021/05/27 10:27:41;;;;;;;1.63;0.80;;;819.70;640.00;;;;;;5095405;28;20032;-67
2021/05/27 10:30:08;;;;;;;2.08;0.90;;;819.70;665.60;;;;;;5095912;28;20016;-67
2021/05/27 10:32:40;;;;;;;1.02;0.88;;;819.70;665.60;;;;;;5095353;28;20052;-66
2021/05/27 10:35:07;;;;;;;1.80;1.15;;;819.70;640.00;;;;;;5095543;28;20073;-67
2021/05/27 10:37:38;;;;;;;1.98;0.80;;;819.80;640.00;;;;;;5094899;28;20099;-66
2021/05/27 10:40:22;;;;;;;1.67;0.80;;;819.90;614.40;;;;;;5095460;28;20100;-66
2021/05/27 10:43:12;;;;;;;5.63;1.00;;;820.10;640.00;;;;;;5095137;28;20035;-67
2021/05/27 10:45:56;;;;;;;4.53;1.08;;;844.80;614.40;;;;;;5032723;28;20037;-66
2021/05/27 10:48:23;;;;;;;2.55;0.90;;;845.00;640.00;;;;;;5032831;28;20435;-66
2021/05/27 10:51:24;;;;;;;2.05;1.00;;;844.80;665.60;;;;;;5032657;28;20034;-66
2021/05/27 10:53:44;;;;;;;6.18;1.10;;;819.90;640.00;;;;;;5030625;28;20022;-66
2021/05/27 10:56:11;;;;;;;2.97;0.98;;;819.80;614.40;;;;;;5032539;28;20405;-67
2021/05/27 10:58:49;;;;;;;3.08;0.90;;;819.70;588.80;;;;;;5032706;28;20031;-67
2021/05/27 11:01:19;;;;;;;2.20;0.68;;;819.70;614.40;;;;;;5032520;28;20080;-66
2021/05/27 11:03:50;;;;;;;2.63;0.90;;;819.70;614.40;;;;;;5032745;28;20036;-66
2021/05/27 11:06:30;;;;;;;1.25;0.80;;;819.70;614.40;;;;;;5032374;28;20036;-66
2021/05/27 11:09:11;;;;;;;1.50;0.80;;;819.80;614.40;;;;;;5032948;28;20069;-67
2021/05/27 11:11:43;;;;;;;1.52;0.80;;;819.70;614.40;;;;;;5032581;28;20025;-66
2021/05/27 11:14:40;;;;;;;1.85;1.00;;;819.70;614.40;;;;;;5032424;28;20404;-66
2021/05/27 11:17:06;;;;;;;4.47;0.98;;;819.70;588.80;;;;;;5032345;28;20038;-67
2021/05/27 11:22:28;;;;;;;4.55;1.05;;;819.40;588.80;;;;;;5056952;28;20417;-66
2021/05/27 11:27:42;;;;;;;1.02;0.75;;;819.20;614.40;;;;;;5094642;28;20039;-67
2021/05/27 11:30:26;;;;;;;3.13;1.13;;;819.20;614.40;;;;;;5094511;28;20454;-66
2021/05/27 11:32:59;;;;;;;1.95;0.90;;;819.50;614.40;;;;;;5094392;28;20044;-66
2021/05/27 11:35:28;;;;;;;3.33;1.00;;;819.80;614.40;;;;;;5094323;28;20028;-68
2021/05/27 11:37:54;;;;;;;2.42;0.90;;;819.80;614.40;;;;;;5093196;28;20028;-70
2021/05/27 11:40:31;;;;;;;4.15;0.80;;;819.90;614.40;;;;;;5092838;28;20478;-71
2021/05/27 11:42:57;;;;;;;2.88;0.90;;;820.10;614.40;;;;;;5092614;28;20020;-70
2021/05/27 11:45:26;;;;;;;3.92;0.93;;;844.80;640.00;;;;;;5089958;28;20085;-69
2021/05/27 11:48:15;;;;;;;5.25;1.00;;;845.00;640.00;;;;;;5092843;28;20020;-71
2021/05/27 11:50:42;;;;;;;1.98;0.80;;;845.10;614.40;;;;;;5092534;28;20023;-69
2021/05/27 11:53:09;;;;;;;1.65;1.00;;;845.10;614.40;;;;;;5092486;28;20044;-69
2021/05/27 11:55:35;;;;;;;2.42;0.63;;;845.20;614.40;;;;;;5092580;28;20389;-71
2021/05/27 11:58:01;;;;;;;1.83;0.80;;;845.30;614.40;;;;;;5092334;28;20499;-70
2021/05/27 12:00:27;;;;;;;3.97;0.88;;;845.40;614.40;;;;;;5092481;28;20484;-69
2021/05/27 12:02:54;;;;;;;2.85;0.90;;;845.50;614.40;;;;;;5091379;28;20040;-71
2021/05/27 12:05:28;;;;;;;2.65;0.88;;;845.50;614.40;;;;;;5089927;28;20120;-71
2021/05/27 12:07:57;;;;;;;3.00;0.98;;;845.40;614.40;;;;;;5092495;28;20501;-71
2021/05/27 12:10:25;;;;;;;1.25;0.80;;;845.30;614.40;;;;;;5092371;28;20028;-71
2021/05/27 12:12:51;;;;;;;1.30;0.80;;;845.30;614.40;;;;;;5092072;28;20016;-71
2021/05/27 12:15:21;;;;;;;2.53;1.00;;;845.50;614.40;;;;;;5092507;28;20035;-71
2021/05/27 12:17:47;;;;;;;2.88;0.77;;;870.40;588.80;;;;;;5092520;28;20016;-71
2021/05/27 12:20:17;;;;;;;3.65;1.23;;;870.50;588.80;;;;;;5092341;28;20032;-67
2021/05/27 12:22:52;;;;;;;2.13;0.90;;;870.50;588.80;;;;;;5092562;28;20044;-67
2021/05/27 12:25:20;;;;;;;2.50;1.00;;;870.40;588.80;;;;;;5089706;28;20035;-66
2021/05/27 12:27:49;;;;;;;1.92;0.82;;;845.50;614.40;;;;;;5092097;28;20016;-67
2021/05/27 12:30:35;;;;;;;4.93;1.17;;;845.30;614.40;;;;;;5089550;28;20099;-68
2021/05/27 12:33:02;;;;;;;2.40;0.70;;;845.00;614.40;;;;;;5091953;28;20020;-68
2021/05/27 12:35:32;;;;;;;1.70;0.98;;;820.10;614.40;;;;;;5091143;28;20016;-67
2021/05/27 12:37:59;;;;;;;2.47;1.20;;;819.80;614.40;;;;;;5095057;28;20039;-67
2021/05/27 12:40:29;;;;;;;2.22;1.05;;;819.60;588.80;;;;;;5096764;28;20028;-66